Terminal Aerodrome Forecast
Issued by NWS

Home | Current Version | Previous Version | Graphics & Text | Print | Product List | Glossary On
Versions: 1 2 3 4 5 6 7 8 9 10 11 12 13 14
000
FTUS42 KMHX 251700
TAFOAJ
TAF
KOAJ 251731Z 2518/2618 03013KT P6SM BKN028 OVC035
     FM251900 03013G20KT P6SM SCT030 BKN035
     FM252300 05008KT P6SM SCT040
      AMD LTD TO CLD VIS AND WIND=

USA.gov is the U.S. government's official web portal to all federal, state and local government web resources and services.